Terminal Aerodrome Forecast
Issued by NWS Duluth, MN

Home | Current Version | Previous Version | Text Only | Print | Product List | Glossary On
Versions: 1 2 3 4 5 6 7 8 9 10 11 12 13 14 15 16 17 18 19 20 21
000
FTUS43 KDLH 261700
TAFDLH
TAF
KDLH 261739Z 2618/2718 31008KT P6SM -SN BKN015 OVC090
      TEMPO 2618/2619 5SM -SN
     FM262000 35007KT P6SM SCT014
      TEMPO 2620/2622 BKN014
     FM270200 33007KT P6SM SKC=

USA.gov is the U.S. government's official web portal to all federal, state and local government web resources and services.